Southwest Georgia Regional Airport
KABY : rendu visible

Aérodrome :











RETROUVEZ-NOUS SUR...

 
LOGIN :

S'inscrire | Disclaimer

   EN    FR    IT 

 









Légende :    VFR   VFR Marginal   IFR   IFR Intensif   IFR Très Intensif
Visi : 
Plafond : 
>= 8 km
>= 3000ft
5 à 8 km
1000 à 3000 ft
1500m à 5 km
500 à 1000 ft
800 à 1500m
200 à 500 ft
< 800m
< 200 ft
Symboles :   Orages  Brouillard  Fortes neiges  Fortes précipitations  Vent > 20 kt






- Altitude de l'aérodrome : 197 ft
- Code IATA : ABY


KABY - Southwest Georgia Regional

DERNIER METAR :
  • 150653Z AUTO 02006KT 4SM -RA BR OVC006 07/06 A3014 RMK AO2 CIG 005V010 SLP206 P0001 T00720056

METARs EXPIRÉS :
  • 150601Z AUTO 36006KT 4SM -RA BR OVC006 07/06 A3016 RMK AO2 P0000 T00670056
  • 150553Z AUTO 36006KT 2 1/2SM -RA BR OVC006 07/06 A3017 RMK AO2 SLP216 P0006 60010 T00720056 10094 20072 56006
  • 150538Z AUTO 34007KT 3SM -RA BR OVC006 07/06 A3018 RMK AO2 CIG 004V010 P0004 T00720056
  • 150527Z AUTO 35005KT 2 1/2SM -RA BR OVC006 07/06 A3018 RMK AO2 CIG 004V010 P0003 T00720056
  • 150453Z AUTO 35007KT 7SM -RA OVC006 07/06 A3018 RMK AO2 SLP219 P0002 T00720056 401000050

TAF KABY
Valide du 15 à 06h jusqu'au 16 à 06h UTC


150520Z 1506/1606 03008KT 5SM -RA OVC007



MET'MAP, la Météo Aéronautique d'un coup d'oeil ! - Copyright ORBIFLY Décembre 2007 - Disclaimer

ORBIFLY MET'MAP TEAM :

Programmation & Développement : Alexandra Zaïnal
Conception & Développement : Baudouin d'Aumeries
Co-Programmation & Développement : Marc-Olivier Méhu
Soutien technique & logistique : Manuel Goepfert

Contact : metmap@orbifly.com




SOURCES & CREDITS :

   NOAA       Earth
Advisory